sensor_id;sensor_type;location;lat;lon;timestamp;pressure;altitude;pressure_sealevel;temperature;humidity
49393;BME280;35268;42.642;23.308;2023-05-07T00:01:49;94148.16;;;11.59;66.65
49393;BME280;35268;42.642;23.308;2023-05-07T00:04:15;94150.03;;;11.50;67.00
49393;BME280;35268;42.642;23.308;2023-05-07T00:06:40;94159.28;;;11.43;67.72
49393;BME280;35268;42.642;23.308;2023-05-07T00:09:06;94152.97;;;11.31;68.03
49393;BME280;35268;42.642;23.308;2023-05-07T00:11:32;94155.00;;;11.25;68.24
49393;BME280;35268;42.642;23.308;2023-05-07T00:13:58;94156.69;;;11.21;68.54
49393;BME280;35268;42.642;23.308;2023-05-07T00:16:24;94153.25;;;11.20;68.71
49393;BME280;35268;42.642;23.308;2023-05-07T00:18:50;94154.03;;;11.21;68.62
49393;BME280;35268;42.642;23.308;2023-05-07T00:21:15;94148.69;;;11.21;68.47
49393;BME280;35268;42.642;23.308;2023-05-07T00:23:41;94143.34;;;11.21;68.40
49393;BME280;35268;42.642;23.308;2023-05-07T00:26:06;94144.16;;;11.21;68.25
49393;BME280;35268;42.642;23.308;2023-05-07T00:28:31;94141.31;;;11.18;68.27
49393;BME280;35268;42.642;23.308;2023-05-07T00:30:57;94143.50;;;11.16;68.56
49393;BME280;35268;42.642;23.308;2023-05-07T00:33:22;94132.84;;;11.16;68.40
49393;BME280;35268;42.642;23.308;2023-05-07T00:35:48;94137.22;;;11.12;68.43
49393;BME280;35268;42.642;23.308;2023-05-07T00:38:14;94129.81;;;11.09;68.45
49393;BME280;35268;42.642;23.308;2023-05-07T00:40:39;94135.94;;;11.09;67.94
49393;BME280;35268;42.642;23.308;2023-05-07T00:43:05;94141.13;;;11.06;67.67
49393;BME280;35268;42.642;23.308;2023-05-07T00:45:32;94144.38;;;10.94;67.60
49393;BME280;35268;42.642;23.308;2023-05-07T00:48:01;94144.56;;;10.97;67.45
49393;BME280;35268;42.642;23.308;2023-05-07T00:50:28;94147.22;;;10.97;67.41
49393;BME280;35268;42.642;23.308;2023-05-07T00:52:54;94161.94;;;10.95;67.32
49393;BME280;35268;42.642;23.308;2023-05-07T00:55:21;94153.78;;;10.91;67.40
49393;BME280;35268;42.642;23.308;2023-05-07T00:57:46;94150.94;;;10.88;67.68
49393;BME280;35268;42.642;23.308;2023-05-07T01:00:12;94159.53;;;10.84;67.73
49393;BME280;35268;42.642;23.308;2023-05-07T01:02:39;94147.91;;;10.80;67.44
49393;BME280;35268;42.642;23.308;2023-05-07T01:05:05;94158.44;;;10.77;67.76
49393;BME280;35268;42.642;23.308;2023-05-07T01:07:33;94160.13;;;10.73;67.62
49393;BME280;35268;42.642;23.308;2023-05-07T01:09:59;94158.69;;;10.67;67.90
49393;BME280;35268;42.642;23.308;2023-05-07T01:12:26;94149.72;;;10.62;67.95
49393;BME280;35268;42.642;23.308;2023-05-07T01:14:53;94155.94;;;10.58;68.31
49393;BME280;35268;42.642;23.308;2023-05-07T01:17:18;94146.84;;;10.50;68.57
49393;BME280;35268;42.642;23.308;2023-05-07T01:19:44;94142.09;;;10.47;68.75
49393;BME280;35268;42.642;23.308;2023-05-07T01:22:10;94143.81;;;10.43;68.88
49393;BME280;35268;42.642;23.308;2023-05-07T01:24:40;94146.78;;;10.41;68.98
49393;BME280;35268;42.642;23.308;2023-05-07T01:27:06;94144.41;;;10.40;69.07
49393;BME280;35268;42.642;23.308;2023-05-07T01:29:31;94152.09;;;10.41;69.28
49393;BME280;35268;42.642;23.308;2023-05-07T01:31:59;94147.38;;;10.38;69.17
49393;BME280;35268;42.642;23.308;2023-05-07T01:34:27;94142.34;;;10.37;69.33
49393;BME280;35268;42.642;23.308;2023-05-07T01:36:54;94140.63;;;10.32;69.38
49393;BME280;35268;42.642;23.308;2023-05-07T01:39:23;94145.13;;;10.32;69.56
49393;BME280;35268;42.642;23.308;2023-05-07T01:41:49;94133.81;;;10.26;69.69
49393;BME280;35268;42.642;23.308;2023-05-07T01:44:16;94139.44;;;10.24;69.94
49393;BME280;35268;42.642;23.308;2023-05-07T01:46:43;94135.91;;;10.15;70.26
49393;BME280;35268;42.642;23.308;2023-05-07T01:49:09;94126.84;;;10.16;70.54
49393;BME280;35268;42.642;23.308;2023-05-07T01:51:35;94127.13;;;10.15;70.53
49393;BME280;35268;42.642;23.308;2023-05-07T01:54:00;94118.38;;;10.14;70.52
49393;BME280;35268;42.642;23.308;2023-05-07T01:56:26;94118.19;;;10.11;70.65
49393;BME280;35268;42.642;23.308;2023-05-07T01:58:52;94117.50;;;10.05;71.07
49393;BME280;35268;42.642;23.308;2023-05-07T02:01:17;94109.47;;;9.96;71.06
49393;BME280;35268;42.642;23.308;2023-05-07T02:03:43;94111.34;;;9.96;71.33
49393;BME280;35268;42.642;23.308;2023-05-07T02:06:09;94111.66;;;9.94;71.42
49393;BME280;35268;42.642;23.308;2023-05-07T02:08:34;94107.09;;;9.95;71.23
49393;BME280;35268;42.642;23.308;2023-05-07T02:11:00;94099.44;;;9.93;71.30
49393;BME280;35268;42.642;23.308;2023-05-07T02:13:28;94104.09;;;9.88;71.18
49393;BME280;35268;42.642;23.308;2023-05-07T02:15:54;94109.41;;;9.88;71.25
49393;BME280;35268;42.642;23.308;2023-05-07T02:18:20;94098.38;;;9.80;71.55
49393;BME280;35268;42.642;23.308;2023-05-07T02:20:45;94107.47;;;9.79;71.46
49393;BME280;35268;42.642;23.308;2023-05-07T02:23:10;94096.63;;;9.76;71.61
49393;BME280;35268;42.642;23.308;2023-05-07T02:25:36;94100.06;;;9.76;71.70
49393;BME280;35268;42.642;23.308;2023-05-07T02:28:01;94098.81;;;9.74;72.40
49393;BME280;35268;42.642;23.308;2023-05-07T02:30:28;94104.56;;;9.67;73.51
49393;BME280;35268;42.642;23.308;2023-05-07T02:32:53;94104.38;;;9.63;73.48
49393;BME280;35268;42.642;23.308;2023-05-07T02:35:19;94098.25;;;9.63;73.47
49393;BME280;35268;42.642;23.308;2023-05-07T02:37:45;94103.09;;;9.61;73.45
49393;BME280;35268;42.642;23.308;2023-05-07T02:40:10;94108.72;;;9.59;73.20
49393;BME280;35268;42.642;23.308;2023-05-07T02:42:36;94092.56;;;9.56;73.63
49393;BME280;35268;42.642;23.308;2023-05-07T02:45:05;94102.41;;;9.55;73.84
49393;BME280;35268;42.642;23.308;2023-05-07T02:47:30;94100.06;;;9.54;74.29
49393;BME280;35268;42.642;23.308;2023-05-07T02:49:56;94110.81;;;9.49;74.40
49393;BME280;35268;42.642;23.308;2023-05-07T02:52:22;94108.44;;;9.47;74.77
49393;BME280;35268;42.642;23.308;2023-05-07T02:54:47;94114.06;;;9.46;74.90
49393;BME280;35268;42.642;23.308;2023-05-07T02:57:13;94114.06;;;9.46;74.99
49393;BME280;35268;42.642;23.308;2023-05-07T02:59:38;94118.31;;;9.47;74.85
49393;BME280;35268;42.642;23.308;2023-05-07T03:02:04;94116.44;;;9.47;74.79
49393;BME280;35268;42.642;23.308;2023-05-07T03:04:29;94119.09;;;9.47;74.88
49393;BME280;35268;42.642;23.308;2023-05-07T03:06:55;94118.00;;;9.48;74.83
49393;BME280;35268;42.642;23.308;2023-05-07T03:09:20;94120.50;;;9.44;74.88
49393;BME280;35268;42.642;23.308;2023-05-07T03:11:46;94120.78;;;9.43;74.92
49393;BME280;35268;42.642;23.308;2023-05-07T03:14:11;94124.34;;;9.38;75.10
49393;BME280;35268;42.642;23.308;2023-05-07T03:16:37;94121.56;;;9.30;75.29
49393;BME280;35268;42.642;23.308;2023-05-07T03:19:03;94131.72;;;9.28;75.53
49393;BME280;35268;42.642;23.308;2023-05-07T03:21:29;94130.47;;;9.25;75.71
49393;BME280;35268;42.642;23.308;2023-05-07T03:23:55;94137.38;;;9.26;75.75
49393;BME280;35268;42.642;23.308;2023-05-07T03:26:21;94133.59;;;9.27;75.82
49393;BME280;35268;42.642;23.308;2023-05-07T03:28:47;94136.56;;;9.26;76.04
49393;BME280;35268;42.642;23.308;2023-05-07T03:31:12;94137.84;;;9.28;76.11
49393;BME280;35268;42.642;23.308;2023-05-07T03:33:50;94134.59;;;9.31;76.06
49393;BME280;35268;42.642;23.308;2023-05-07T03:36:16;94144.16;;;9.32;75.88
49393;BME280;35268;42.642;23.308;2023-05-07T03:38:41;94133.69;;;9.36;75.71
49393;BME280;35268;42.642;23.308;2023-05-07T03:41:06;94138.50;;;9.34;75.92
49393;BME280;35268;42.642;23.308;2023-05-07T03:43:32;94145.13;;;9.36;75.94
49393;BME280;35268;42.642;23.308;2023-05-07T03:45:57;94145.91;;;9.37;75.74
49393;BME280;35268;42.642;23.308;2023-05-07T03:48:23;94151.53;;;9.35;75.74
49393;BME280;35268;42.642;23.308;2023-05-07T03:50:48;94147.88;;;9.31;76.04
49393;BME280;35268;42.642;23.308;2023-05-07T03:53:14;94138.50;;;9.34;76.34
49393;BME280;35268;42.642;23.308;2023-05-07T03:55:39;94154.59;;;9.42;75.90
49393;BME280;35268;42.642;23.308;2023-05-07T03:58:05;94156.53;;;9.51;75.96
49393;BME280;35268;42.642;23.308;2023-05-07T04:00:30;94161.16;;;9.59;75.74
49393;BME280;35268;42.642;23.308;2023-05-07T04:02:58;94161.94;;;9.59;75.63
49393;BME280;35268;42.642;23.308;2023-05-07T04:05:24;94171.88;;;9.68;75.49
49393;BME280;35268;42.642;23.308;2023-05-07T04:07:50;94169.56;;;9.75;75.47
49393;BME280;35268;42.642;23.308;2023-05-07T04:10:15;94177.16;;;9.81;75.05
49393;BME280;35268;42.642;23.308;2023-05-07T04:12:40;94179.59;;;9.92;75.01
49393;BME280;35268;42.642;23.308;2023-05-07T04:15:06;94179.19;;;9.98;74.44
49393;BME280;35268;42.642;23.308;2023-05-07T04:17:32;94190.63;;;9.99;74.50
49393;BME280;35268;42.642;23.308;2023-05-07T04:19:57;94191.50;;;10.08;74.23
49393;BME280;35268;42.642;23.308;2023-05-07T04:22:23;94186.03;;;10.13;74.39
49393;BME280;35268;42.642;23.308;2023-05-07T04:24:48;94185.44;;;10.16;74.79
49393;BME280;35268;42.642;23.308;2023-05-07T04:27:13;94195.47;;;10.19;74.87
49393;BME280;35268;42.642;23.308;2023-05-07T04:29:39;94197.06;;;10.20;74.59
49393;BME280;35268;42.642;23.308;2023-05-07T04:32:08;94207.09;;;10.23;74.48
49393;BME280;35268;42.642;23.308;2023-05-07T04:34:34;94202.22;;;10.17;74.86
49393;BME280;35268;42.642;23.308;2023-05-07T04:36:59;94207.53;;;10.17;74.47
49393;BME280;35268;42.642;23.308;2023-05-07T04:39:25;94205.16;;;10.15;74.33
49393;BME280;35268;42.642;23.308;2023-05-07T04:41:51;94209.91;;;10.18;74.71
49393;BME280;35268;42.642;23.308;2023-05-07T04:44:16;94217.16;;;10.27;74.50
49393;BME280;35268;42.642;23.308;2023-05-07T04:46:41;94206.50;;;10.27;74.70
49393;BME280;35268;42.642;23.308;2023-05-07T04:49:07;94210.66;;;10.33;74.38
49393;BME280;35268;42.642;23.308;2023-05-07T04:51:32;94210.03;;;10.36;74.36
49393;BME280;35268;42.642;23.308;2023-05-07T04:53:58;94208.06;;;10.41;74.39
49393;BME280;35268;42.642;23.308;2023-05-07T04:56:23;94209.03;;;10.46;74.32
49393;BME280;35268;42.642;23.308;2023-05-07T04:58:49;94208.13;;;10.50;74.45
49393;BME280;35268;42.642;23.308;2023-05-07T05:01:14;94214.91;;;10.56;74.58
49393;BME280;35268;42.642;23.308;2023-05-07T05:03:39;94219.81;;;10.63;74.84
49393;BME280;35268;42.642;23.308;2023-05-07T05:06:06;94219.75;;;10.77;74.58
49393;BME280;35268;42.642;23.308;2023-05-07T05:08:31;94210.38;;;10.88;74.18
49393;BME280;35268;42.642;23.308;2023-05-07T05:10:57;94201.81;;;11.00;73.12
49393;BME280;35268;42.642;23.308;2023-05-07T05:13:22;94193.38;;;11.07;72.62
49393;BME280;35268;42.642;23.308;2023-05-07T05:15:47;94202.81;;;11.13;72.52
49393;BME280;35268;42.642;23.308;2023-05-07T05:18:13;94207.38;;;11.21;71.89
49393;BME280;35268;42.642;23.308;2023-05-07T05:20:38;94210.41;;;11.28;71.56
49393;BME280;35268;42.642;23.308;2023-05-07T05:23:04;94204.94;;;11.33;71.35
49393;BME280;35268;42.642;23.308;2023-05-07T05:25:30;94204.03;;;11.38;70.96
49393;BME280;35268;42.642;23.308;2023-05-07T05:27:55;94210.44;;;11.37;71.20
49393;BME280;35268;42.642;23.308;2023-05-07T05:30:21;94205.75;;;11.42;70.93
49393;BME280;35268;42.642;23.308;2023-05-07T05:32:47;94215.66;;;11.51;70.79
49393;BME280;35268;42.642;23.308;2023-05-07T05:35:12;94211.59;;;11.53;70.65
49393;BME280;35268;42.642;23.308;2023-05-07T05:37:37;94219.28;;;11.55;70.14
49393;BME280;35268;42.642;23.308;2023-05-07T05:40:03;94217.91;;;11.66;69.79
49393;BME280;35268;42.642;23.308;2023-05-07T05:42:29;94216.66;;;11.72;69.72
49393;BME280;35268;42.642;23.308;2023-05-07T05:44:54;94218.06;;;11.78;69.33
49393;BME280;35268;42.642;23.308;2023-05-07T05:47:20;94211.53;;;11.84;69.05
49393;BME280;35268;42.642;23.308;2023-05-07T05:49:45;94219.66;;;11.88;68.97
49393;BME280;35268;42.642;23.308;2023-05-07T05:52:12;94219.88;;;11.92;68.82
49393;BME280;35268;42.642;23.308;2023-05-07T05:54:39;94208.41;;;12.00;68.35
49393;BME280;35268;42.642;23.308;2023-05-07T05:57:04;94213.44;;;12.01;68.14
49393;BME280;35268;42.642;23.308;2023-05-07T05:59:30;94216.13;;;12.10;68.39
49393;BME280;35268;42.642;23.308;2023-05-07T06:01:55;94221.16;;;12.20;67.91
49393;BME280;35268;42.642;23.308;2023-05-07T06:04:21;94212.66;;;12.27;67.61
49393;BME280;35268;42.642;23.308;2023-05-07T06:06:46;94212.03;;;12.39;67.51
49393;BME280;35268;42.642;23.308;2023-05-07T06:09:12;94222.41;;;12.49;66.56
49393;BME280;35268;42.642;23.308;2023-05-07T06:11:37;94220.84;;;12.48;66.40
49393;BME280;35268;42.642;23.308;2023-05-07T06:14:02;94222.72;;;12.56;65.72
49393;BME280;35268;42.642;23.308;2023-05-07T06:16:28;94213.75;;;12.61;65.68
49393;BME280;35268;42.642;23.308;2023-05-07T06:18:53;94212.16;;;12.69;65.54
49393;BME280;35268;42.642;23.308;2023-05-07T06:21:19;94220.31;;;12.81;65.00
49393;BME280;35268;42.642;23.308;2023-05-07T06:23:44;94216.84;;;12.89;64.43
49393;BME280;35268;42.642;23.308;2023-05-07T06:26:10;94215.25;;;12.97;63.81
49393;BME280;35268;42.642;23.308;2023-05-07T06:28:35;94209.09;;;13.05;62.96
49393;BME280;35268;42.642;23.308;2023-05-07T06:31:17;94204.66;;;13.18;62.95
49393;BME280;35268;42.642;23.308;2023-05-07T06:33:44;94199.44;;;13.30;62.76
49393;BME280;35268;42.642;23.308;2023-05-07T06:36:09;94194.19;;;13.42;62.66
49393;BME280;35268;42.642;23.308;2023-05-07T06:38:35;94198.38;;;13.52;62.99
49393;BME280;35268;42.642;23.308;2023-05-07T06:41:01;94206.97;;;13.67;62.44
49393;BME280;35268;42.642;23.308;2023-05-07T06:43:26;94196.97;;;13.76;61.25
49393;BME280;35268;42.642;23.308;2023-05-07T06:45:52;94199.94;;;13.83;60.70
49393;BME280;35268;42.642;23.308;2023-05-07T06:48:17;94188.72;;;13.90;60.90
49393;BME280;35268;42.642;23.308;2023-05-07T06:50:43;94190.38;;;14.03;60.52
49393;BME280;35268;42.642;23.308;2023-05-07T06:53:08;94188.84;;;14.14;60.44
49393;BME280;35268;42.642;23.308;2023-05-07T06:55:34;94186.91;;;14.23;59.32
49393;BME280;35268;42.642;23.308;2023-05-07T06:57:59;94186.56;;;14.25;58.59
49393;BME280;35268;42.642;23.308;2023-05-07T07:00:27;94184.47;;;14.31;58.61
49393;BME280;35268;42.642;23.308;2023-05-07T07:02:53;94183.97;;;14.37;57.71
49393;BME280;35268;42.642;23.308;2023-05-07T07:05:19;94186.56;;;14.46;57.53
49393;BME280;35268;42.642;23.308;2023-05-07T07:07:44;94183.34;;;14.53;56.90
49393;BME280;35268;42.642;23.308;2023-05-07T07:10:18;94186.81;;;14.53;56.44
49393;BME280;35268;42.642;23.308;2023-05-07T07:12:44;94178.25;;;14.60;56.38
49393;BME280;35268;42.642;23.308;2023-05-07T07:15:10;94179.63;;;14.66;55.90
49393;BME280;35268;42.642;23.308;2023-05-07T07:17:35;94180.53;;;14.70;55.99
49393;BME280;35268;42.642;23.308;2023-05-07T07:20:01;94186.94;;;14.78;55.76
49393;BME280;35268;42.642;23.308;2023-05-07T07:22:26;94178.66;;;14.83;55.48
49393;BME280;35268;42.642;23.308;2023-05-07T07:24:52;94181.59;;;14.90;55.37
49393;BME280;35268;42.642;23.308;2023-05-07T07:27:17;94173.13;;;15.00;55.46
49393;BME280;35268;42.642;23.308;2023-05-07T07:29:42;94185.19;;;15.07;55.20
49393;BME280;35268;42.642;23.308;2023-05-07T07:32:08;94175.69;;;15.09;55.06
49393;BME280;35268;42.642;23.308;2023-05-07T07:34:33;94171.78;;;15.19;55.41
49393;BME280;35268;42.642;23.308;2023-05-07T07:36:59;94178.06;;;15.35;55.03
49393;BME280;35268;42.642;23.308;2023-05-07T07:39:30;94183.78;;;15.46;54.76
49393;BME280;35268;42.642;23.308;2023-05-07T07:41:56;94172.91;;;15.55;53.81
49393;BME280;35268;42.642;23.308;2023-05-07T07:44:22;94181.09;;;15.58;53.43
49393;BME280;35268;42.642;23.308;2023-05-07T07:46:47;94181.97;;;15.62;53.07
49393;BME280;35268;42.642;23.308;2023-05-07T07:49:13;94177.28;;;15.72;52.36
49393;BME280;35268;42.642;23.308;2023-05-07T07:51:38;94188.97;;;15.76;52.74
49393;BME280;35268;42.642;23.308;2023-05-07T07:54:04;94179.28;;;15.87;50.53
49393;BME280;35268;42.642;23.308;2023-05-07T07:56:29;94187.91;;;15.93;50.55
49393;BME280;35268;42.642;23.308;2023-05-07T07:58:55;94188.03;;;15.96;50.00
49393;BME280;35268;42.642;23.308;2023-05-07T08:01:20;94193.06;;;16.10;50.52
49393;BME280;35268;42.642;23.308;2023-05-07T08:03:45;94187.44;;;16.15;51.07
49393;BME280;35268;42.642;23.308;2023-05-07T08:06:11;94188.31;;;16.19;50.82
49393;BME280;35268;42.642;23.308;2023-05-07T08:08:36;94185.41;;;16.24;50.72
49393;BME280;35268;42.642;23.308;2023-05-07T08:11:02;94190.75;;;16.37;51.01
49393;BME280;35268;42.642;23.308;2023-05-07T08:13:27;94185.31;;;16.49;50.39
49393;BME280;35268;42.642;23.308;2023-05-07T08:15:53;94180.13;;;16.56;50.71
49393;BME280;35268;42.642;23.308;2023-05-07T08:18:19;94182.84;;;16.72;50.12
49393;BME280;35268;42.642;23.308;2023-05-07T08:20:44;94182.72;;;16.81;49.82
49393;BME280;35268;42.642;23.308;2023-05-07T08:23:10;94177.59;;;16.76;49.08
49393;BME280;35268;42.642;23.308;2023-05-07T08:25:35;94175.63;;;16.89;48.53
49393;BME280;35268;42.642;23.308;2023-05-07T08:28:01;94176.06;;;16.91;47.44
49393;BME280;35268;42.642;23.308;2023-05-07T08:30:26;94179.72;;;16.98;47.58
49393;BME280;35268;42.642;23.308;2023-05-07T08:32:52;94174.97;;;17.08;46.40
49393;BME280;35268;42.642;23.308;2023-05-07T08:35:17;94175.47;;;17.13;47.34
49393;BME280;35268;42.642;23.308;2023-05-07T08:37:43;94174.97;;;17.23;46.47
49393;BME280;35268;42.642;23.308;2023-05-07T08:40:09;94166.88;;;17.39;46.23
49393;BME280;35268;42.642;23.308;2023-05-07T08:42:35;94169.50;;;17.52;46.19
49393;BME280;35268;42.642;23.308;2023-05-07T08:45:04;94175.75;;;17.56;46.79
49393;BME280;35268;42.642;23.308;2023-05-07T08:47:37;94170.97;;;17.65;45.45
49393;BME280;35268;42.642;23.308;2023-05-07T08:50:04;94167.84;;;17.63;45.85
49393;BME280;35268;42.642;23.308;2023-05-07T08:52:31;94167.72;;;17.75;45.64
49393;BME280;35268;42.642;23.308;2023-05-07T08:54:57;94164.22;;;17.91;46.07
49393;BME280;35268;42.642;23.308;2023-05-07T08:57:24;94161.84;;;18.05;46.79
49393;BME280;35268;42.642;23.308;2023-05-07T08:59:49;94154.78;;;18.16;45.70
49393;BME280;35268;42.642;23.308;2023-05-07T09:02:15;94146.97;;;18.31;45.77
49393;BME280;35268;42.642;23.308;2023-05-07T09:04:41;94149.09;;;18.41;45.88
49393;BME280;35268;42.642;23.308;2023-05-07T09:07:07;94144.72;;;18.52;45.13
49393;BME280;35268;42.642;23.308;2023-05-07T09:09:33;94135.66;;;18.64;45.01
49393;BME280;35268;42.642;23.308;2023-05-07T09:12:01;94148.22;;;18.76;44.37
49393;BME280;35268;42.642;23.308;2023-05-07T09:14:29;94149.16;;;18.83;42.49
49393;BME280;35268;42.642;23.308;2023-05-07T09:16:56;94144.00;;;18.78;42.41
49393;BME280;35268;42.642;23.308;2023-05-07T09:19:24;94138.84;;;18.89;43.23
49393;BME280;35268;42.642;23.308;2023-05-07T09:21:57;94140.72;;;19.08;42.57
49393;BME280;35268;42.642;23.308;2023-05-07T09:24:23;94142.88;;;19.22;41.63
49393;BME280;35268;42.642;23.308;2023-05-07T09:26:48;94139.38;;;19.44;42.29
49393;BME280;35268;42.642;23.308;2023-05-07T09:29:15;94123.47;;;19.66;41.39
49393;BME280;35268;42.642;23.308;2023-05-07T09:31:42;94130.00;;;19.88;40.49
49393;BME280;35268;42.642;23.308;2023-05-07T09:34:07;94120.47;;;19.98;38.40
49393;BME280;35268;42.642;23.308;2023-05-07T09:36:33;94127.06;;;19.97;38.91
49393;BME280;35268;42.642;23.308;2023-05-07T09:39:02;94118.28;;;20.07;39.30
49393;BME280;35268;42.642;23.308;2023-05-07T09:41:29;94125.84;;;20.24;38.22
49393;BME280;35268;42.642;23.308;2023-05-07T09:43:55;94123.13;;;20.24;37.25
49393;BME280;35268;42.642;23.308;2023-05-07T09:46:32;94115.72;;;20.18;36.61
49393;BME280;35268;42.642;23.308;2023-05-07T09:49:01;94124.16;;;20.13;36.86
49393;BME280;35268;42.642;23.308;2023-05-07T09:51:37;94120.38;;;20.21;35.63
49393;BME280;35268;42.642;23.308;2023-05-07T09:54:04;94122.00;;;20.26;36.28
49393;BME280;35268;42.642;23.308;2023-05-07T09:56:30;94105.94;;;20.40;35.89
49393;BME280;35268;42.642;23.308;2023-05-07T09:59:00;94110.47;;;20.62;36.95
49393;BME280;35268;42.642;23.308;2023-05-07T10:01:27;94111.75;;;20.72;36.47
49393;BME280;35268;42.642;23.308;2023-05-07T10:03:52;94109.84;;;20.80;37.24
49393;BME280;35268;42.642;23.308;2023-05-07T10:06:21;94106.56;;;20.97;37.27
49393;BME280;35268;42.642;23.308;2023-05-07T10:08:47;94119.13;;;21.20;38.34
49393;BME280;35268;42.642;23.308;2023-05-07T10:11:13;94106.47;;;21.35;38.73
49393;BME280;35268;42.642;23.308;2023-05-07T10:13:42;94105.50;;;21.54;38.04
49393;BME280;35268;42.642;23.308;2023-05-07T10:16:08;94102.53;;;21.73;37.30
49393;BME280;35268;42.642;23.308;2023-05-07T10:18:34;94104.53;;;21.83;35.44
49393;BME280;35268;42.642;23.308;2023-05-07T10:21:07;94105.00;;;21.96;35.04
49393;BME280;35268;42.642;23.308;2023-05-07T10:23:33;94101.50;;;21.99;33.40
49393;BME280;35268;42.642;23.308;2023-05-07T10:26:02;94095.34;;;22.02;34.01
49393;BME280;35268;42.642;23.308;2023-05-07T10:28:31;94090.78;;;22.21;34.07
49393;BME280;35268;42.642;23.308;2023-05-07T10:31:08;94089.69;;;22.40;33.41
49393;BME280;35268;42.642;23.308;2023-05-07T10:33:36;94080.84;;;22.57;33.13
49393;BME280;35268;42.642;23.308;2023-05-07T10:36:03;94070.38;;;22.67;32.18
49393;BME280;35268;42.642;23.308;2023-05-07T10:38:29;94072.72;;;22.72;32.79
49393;BME280;35268;42.642;23.308;2023-05-07T10:40:55;94075.84;;;22.74;32.92
49393;BME280;35268;42.642;23.308;2023-05-07T10:43:21;94075.44;;;22.79;31.38
49393;BME280;35268;42.642;23.308;2023-05-07T10:51:34;94070.72;;;22.51;31.67
49393;BME280;35268;42.642;23.308;2023-05-07T10:56:35;94070.16;;;22.16;31.17
49393;BME280;35268;42.642;23.308;2023-05-07T11:01:50;94065.13;;;22.11;32.85
49393;BME280;35268;42.642;23.308;2023-05-07T11:04:17;94063.19;;;22.12;33.04
49393;BME280;35268;42.642;23.308;2023-05-07T11:15:13;94066.13;;;21.78;32.67
49393;BME280;35268;42.642;23.308;2023-05-07T11:17:57;94062.72;;;21.95;32.64
49393;BME280;35268;42.642;23.308;2023-05-07T11:20:49;94066.28;;;22.10;31.92
49393;BME280;35268;42.642;23.308;2023-05-07T11:28:29;94047.03;;;22.37;31.55
49393;BME280;35268;42.642;23.308;2023-05-07T11:30:56;94048.66;;;22.70;31.91
49393;BME280;35268;42.642;23.308;2023-05-07T11:33:22;94047.91;;;22.98;31.11
49393;BME280;35268;42.642;23.308;2023-05-07T11:35:48;94048.72;;;23.10;30.65
49393;BME280;35268;42.642;23.308;2023-05-07T11:38:13;94046.34;;;23.01;30.63
49393;BME280;35268;42.642;23.308;2023-05-07T11:40:59;94045.59;;;23.00;30.36
49393;BME280;35268;42.642;23.308;2023-05-07T11:43:29;94047.53;;;23.00;29.96
49393;BME280;35268;42.642;23.308;2023-05-07T11:46:05;94041.72;;;23.01;30.26
49393;BME280;35268;42.642;23.308;2023-05-07T11:48:31;94036.66;;;23.18;30.15
49393;BME280;35268;42.642;23.308;2023-05-07T11:51:02;94034.72;;;23.36;29.48
49393;BME280;35268;42.642;23.308;2023-05-07T11:53:35;94034.72;;;23.47;28.95
49393;BME280;35268;42.642;23.308;2023-05-07T11:56:09;94034.72;;;23.29;28.40
49393;BME280;35268;42.642;23.308;2023-05-07T11:58:35;94041.72;;;23.09;28.95
49393;BME280;35268;42.642;23.308;2023-05-07T12:01:00;94034.72;;;23.08;30.24
49393;BME280;35268;42.642;23.308;2023-05-07T12:03:26;94025.00;;;23.28;29.75
49393;BME280;35268;42.642;23.308;2023-05-07T12:05:52;94026.91;;;23.53;29.78
49393;BME280;35268;42.642;23.308;2023-05-07T12:08:18;94017.16;;;23.80;29.26
49393;BME280;35268;42.642;23.308;2023-05-07T12:10:45;94014.34;;;24.09;28.43
49393;BME280;35268;42.642;23.308;2023-05-07T12:13:21;94011.13;;;24.32;27.78
49393;BME280;35268;42.642;23.308;2023-05-07T12:15:50;94011.41;;;24.52;27.88
49393;BME280;35268;42.642;23.308;2023-05-07T12:18:16;94006.31;;;24.61;26.79
49393;BME280;35268;42.642;23.308;2023-05-07T12:20:42;94015.72;;;24.53;26.88
49393;BME280;35268;42.642;23.308;2023-05-07T12:23:08;94007.94;;;24.52;26.86
49393;BME280;35268;42.642;23.308;2023-05-07T12:25:35;94008.69;;;24.52;26.62
49393;BME280;35268;42.642;23.308;2023-05-07T12:28:02;94000.81;;;24.69;26.16
49393;BME280;35268;42.642;23.308;2023-05-07T12:30:39;93999.19;;;24.75;25.93
49393;BME280;35268;42.642;23.308;2023-05-07T12:33:05;93999.38;;;25.06;25.91
49393;BME280;35268;42.642;23.308;2023-05-07T12:35:32;93998.16;;;25.14;24.33
49393;BME280;35268;42.642;23.308;2023-05-07T12:38:01;93991.78;;;25.31;24.09
49393;BME280;35268;42.642;23.308;2023-05-07T12:40:39;93981.34;;;25.98;24.13
49393;BME280;35268;42.642;23.308;2023-05-07T12:43:05;93982.88;;;26.88;24.36
49393;BME280;35268;42.642;23.308;2023-05-07T12:45:30;93976.69;;;28.35;22.99
49393;BME280;35268;42.642;23.308;2023-05-07T12:47:56;93979.94;;;29.94;20.51
49393;BME280;35268;42.642;23.308;2023-05-07T12:50:21;93965.91;;;31.11;17.52
49393;BME280;35268;42.642;23.308;2023-05-07T12:52:47;93968.41;;;31.18;17.37
49393;BME280;35268;42.642;23.308;2023-05-07T12:55:18;93970.56;;;31.49;17.91
49393;BME280;35268;42.642;23.308;2023-05-07T12:57:48;93957.09;;;32.30;16.66
49393;BME280;35268;42.642;23.308;2023-05-07T13:00:16;93962.91;;;32.85;16.51
49393;BME280;35268;42.642;23.308;2023-05-07T13:02:42;93952.34;;;32.93;16.00
49393;BME280;35268;42.642;23.308;2023-05-07T13:05:14;93951.72;;;32.89;15.77
49393;BME280;35268;42.642;23.308;2023-05-07T13:07:40;93958.09;;;33.17;15.78
49393;BME280;35268;42.642;23.308;2023-05-07T13:10:06;93947.59;;;33.62;15.11
49393;BME280;35268;42.642;23.308;2023-05-07T13:12:32;93951.41;;;34.10;14.91
49393;BME280;35268;42.642;23.308;2023-05-07T13:14:58;93949.41;;;34.81;14.15